createdAt,value
2024-03-05T00:01:05.876Z,99724.50
2024-03-05T00:03:43.348Z,99728.06
2024-03-05T00:06:11.112Z,99729.84
2024-03-05T00:08:38.761Z,99740.38
2024-03-05T00:11:22.287Z,99737.47
2024-03-05T00:13:49.489Z,99732.72
2024-03-05T00:16:21.950Z,99732.41
2024-03-05T00:18:49.245Z,99739.41
2024-03-05T00:21:21.439Z,99739.41
2024-03-05T00:23:53.424Z,99739.97
2024-03-05T00:26:31.156Z,99741.38
2024-03-05T00:28:58.464Z,99736.38
2024-03-05T00:31:26.782Z,99736.97
2024-03-05T00:33:54.284Z,99737.13
2024-03-05T00:36:22.057Z,99743.81
2024-03-05T00:38:54.453Z,99747.69
2024-03-05T00:41:26.452Z,99744.31
2024-03-05T00:43:55.365Z,99747.03
2024-03-05T00:46:28.063Z,99746.91
2024-03-05T00:48:59.378Z,99745.41
2024-03-05T00:51:31.989Z,99749.06
2024-03-05T00:53:59.170Z,99750.41
2024-03-05T00:56:28.491Z,99753.09
2024-03-05T00:59:01.432Z,99754.34
2024-03-05T01:01:29.204Z,99752.69
2024-03-05T01:03:56.716Z,99758.50
2024-03-05T01:06:24.525Z,99757.84
2024-03-05T01:08:51.928Z,99758.03
2024-03-05T01:11:19.671Z,99763.50
2024-03-05T01:13:51.475Z,99762.09
2024-03-05T01:16:25.109Z,99757.59
2024-03-05T01:18:52.473Z,99756.84
2024-03-05T01:21:24.826Z,99764.47
2024-03-05T01:23:52.174Z,99760.94
2024-03-05T01:26:19.885Z,99761.06
2024-03-05T01:28:47.258Z,99752.69
2024-03-05T01:31:21.289Z,99754.22
2024-03-05T01:33:48.695Z,99755.03
2024-03-05T01:36:16.537Z,99754.44
2024-03-05T01:38:43.883Z,99759.28
2024-03-05T01:41:11.577Z,99758.81
2024-03-05T01:43:38.973Z,99750.19
2024-03-05T01:46:11.560Z,99756.59
2024-03-05T01:48:43.060Z,99758.44
2024-03-05T01:51:12.297Z,99759.78
2024-03-05T01:53:39.913Z,99768.25
2024-03-05T01:56:12.770Z,99766.56
2024-03-05T01:58:41.354Z,99766.28
2024-03-05T02:01:15.048Z,99763.44
2024-03-05T02:03:43.992Z,99766.47
2024-03-05T02:06:16.739Z,99770.63
2024-03-05T02:08:44.291Z,99767.94
2024-03-05T02:11:13.385Z,99765.94
2024-03-05T02:13:41.021Z,99771.06
2024-03-05T02:16:08.831Z,99774.84
2024-03-05T02:18:43.442Z,99771.31
2024-03-05T02:21:21.180Z,99768.88
2024-03-05T02:23:52.439Z,99774.00
2024-03-05T02:26:24.422Z,99770.03
2024-03-05T02:28:53.116Z,99768.22
2024-03-05T02:31:26.584Z,99766.78
2024-03-05T02:33:58.444Z,99771.91
2024-03-05T02:36:30.903Z,99769.81
2024-03-05T02:38:58.237Z,99773.19
2024-03-05T02:41:36.490Z,99773.97
2024-03-05T02:44:04.043Z,99778.63
2024-03-05T02:46:35.964Z,99777.31
2024-03-05T02:49:03.311Z,99779.63
2024-03-05T02:51:36.123Z,99779.38
2024-03-05T02:54:03.532Z,99777.56
2024-03-05T02:56:35.795Z,99781.06
2024-03-05T02:59:05.721Z,99782.19
2024-03-05T03:01:36.261Z,99786.00
2024-03-05T03:04:03.719Z,99785.69
2024-03-05T03:06:35.841Z,99788.50
2024-03-05T03:09:05.084Z,99798.00
2024-03-05T03:11:33.553Z,99797.94
2024-03-05T03:14:00.992Z,99794.91
2024-03-05T03:16:28.941Z,99807.72
2024-03-05T03:18:56.292Z,99801.88
2024-03-05T03:21:24.064Z,99804.19
2024-03-05T03:23:52.805Z,99796.00
2024-03-05T03:26:21.091Z,99799.00
2024-03-05T03:28:48.487Z,99795.84
2024-03-05T03:31:18.230Z,99797.38
2024-03-05T03:33:45.651Z,99792.75
2024-03-05T03:36:22.882Z,99804.34
2024-03-05T03:38:50.556Z,99798.28
2024-03-05T03:41:20.008Z,99803.34
2024-03-05T03:43:47.548Z,99806.16
2024-03-05T03:46:16.033Z,99805.38
2024-03-05T03:48:43.431Z,99808.28
2024-03-05T03:51:11.311Z,99811.97
2024-03-05T03:53:38.738Z,99810.97
2024-03-05T03:56:07.132Z,99812.47
2024-03-05T03:58:35.983Z,99812.28
2024-03-05T04:01:04.605Z,99800.13
2024-03-05T04:03:32.097Z,99811.88
2024-03-05T04:05:59.867Z,99813.97
2024-03-05T04:08:27.234Z,99817.16
2024-03-05T04:10:57.803Z,99817.06
2024-03-05T04:13:25.177Z,99807.91
2024-03-05T04:15:55.014Z,99808.22
2024-03-05T04:18:22.404Z,99814.56
2024-03-05T04:20:50.495Z,99818.06
2024-03-05T04:23:18.194Z,99818.22
2024-03-05T04:25:45.991Z,99819.75
2024-03-05T04:28:13.512Z,99819.75
2024-03-05T04:30:41.968Z,99825.84
2024-03-05T04:33:10.955Z,99828.66
2024-03-05T04:35:38.921Z,99827.59
2024-03-05T04:38:09.198Z,99831.47
2024-03-05T04:40:37.341Z,99828.50
2024-03-05T04:43:05.268Z,99828.50
2024-03-05T04:45:38.651Z,99832.47
2024-03-05T04:48:06.532Z,99839.19
2024-03-05T04:50:36.303Z,99836.44
2024-03-05T04:53:03.881Z,99839.34
2024-03-05T04:55:32.216Z,99835.25
2024-03-05T04:57:59.713Z,99840.94
2024-03-05T05:00:31.537Z,99841.72
2024-03-05T05:02:59.192Z,99839.97
2024-03-05T05:05:27.969Z,99835.78
2024-03-05T05:07:59.791Z,99842.69
2024-03-05T05:10:27.935Z,99839.91
2024-03-05T05:12:55.768Z,99838.69
2024-03-05T05:15:29.122Z,99841.53
2024-03-05T05:17:56.717Z,99842.22
2024-03-05T05:20:24.650Z,99846.94
2024-03-05T05:22:53.325Z,99845.94
2024-03-05T05:25:22.687Z,99847.19
2024-03-05T05:27:50.410Z,99847.28
2024-03-05T05:30:19.477Z,99845.34
2024-03-05T05:32:47.692Z,99842.41
2024-03-05T05:35:17.426Z,99848.59
2024-03-05T05:37:44.900Z,99848.84
2024-03-05T05:40:13.370Z,99853.38
2024-03-05T05:42:43.305Z,99856.44
2024-03-05T05:45:11.079Z,99860.81
2024-03-05T05:47:39.280Z,99860.41
2024-03-05T05:50:08.678Z,99861.56
2024-03-05T05:52:36.194Z,99861.63
2024-03-05T05:55:04.855Z,99865.72
2024-03-05T05:57:32.372Z,99865.25
2024-03-05T06:00:02.232Z,99869.22
2024-03-05T06:02:30.023Z,99876.78
2024-03-05T06:04:58.325Z,99865.59
2024-03-05T06:07:25.716Z,99874.69
2024-03-05T06:09:54.182Z,99875.94
2024-03-05T06:12:24.086Z,99881.28
2024-03-05T06:14:53.266Z,99881.44
2024-03-05T06:17:22.332Z,99887.72
2024-03-05T06:19:50.571Z,99884.75
2024-03-05T06:22:23.254Z,99892.63
2024-03-05T06:24:54.833Z,99897.44
2024-03-05T06:27:22.508Z,99893.78
2024-03-05T06:29:50.485Z,99893.25
2024-03-05T06:32:17.872Z,99895.78
2024-03-05T06:34:47.083Z,99893.25
2024-03-05T06:37:16.442Z,99891.41
2024-03-05T06:39:44.841Z,99896.34
2024-03-05T06:42:12.452Z,99904.22
2024-03-05T06:44:42.825Z,99903.66
2024-03-05T06:47:13.157Z,99907.72
2024-03-05T06:49:41.037Z,99908.56
2024-03-05T06:52:10.207Z,99910.50
2024-03-05T06:54:38.275Z,99902.09
2024-03-05T06:57:06.119Z,99909.94
2024-03-05T06:59:34.343Z,99910.38
2024-03-05T07:02:02.418Z,99920.31
2024-03-05T07:04:30.802Z,99912.63
2024-03-05T07:06:58.678Z,99913.38
2024-03-05T07:09:29.801Z,99922.50
2024-03-05T07:12:00.698Z,99918.53
2024-03-05T07:14:28.978Z,99922.88
2024-03-05T07:16:56.670Z,99930.34
2024-03-05T07:19:24.873Z,99929.72
2024-03-05T07:21:53.072Z,99934.28
2024-03-05T07:24:21.054Z,99933.81
2024-03-05T07:26:56.765Z,99934.50
2024-03-05T07:29:32.472Z,99936.63
2024-03-05T07:32:00.009Z,99942.66
2024-03-05T07:34:27.902Z,99948.72
2024-03-05T07:36:58.923Z,99936.66
2024-03-05T07:39:26.938Z,99942.28
2024-03-05T07:41:55.826Z,99944.50
2024-03-05T07:44:23.740Z,99948.06
2024-03-05T07:46:51.491Z,99948.88
2024-03-05T07:49:22.449Z,99943.97
2024-03-05T07:51:52.270Z,99946.88
2024-03-05T07:54:20.050Z,99945.94
2024-03-05T07:56:48.124Z,99955.41
2024-03-05T07:59:17.690Z,99952.06
2024-03-05T08:01:48.582Z,99951.69
2024-03-05T08:04:16.980Z,99960.31
2024-03-05T08:06:44.928Z,99952.00
2024-03-05T08:09:13.263Z,99958.19
2024-03-05T08:11:41.231Z,99960.13
2024-03-05T08:14:09.954Z,99955.03
2024-03-05T08:16:40.396Z,99952.34
2024-03-05T08:19:09.158Z,99952.28
2024-03-05T08:21:36.391Z,99954.41
2024-03-05T08:24:07.489Z,99963.72
2024-03-05T08:26:35.378Z,99964.31
2024-03-05T08:29:03.559Z,99960.41
2024-03-05T08:31:31.529Z,99965.50
2024-03-05T08:34:01.246Z,99962.91
2024-03-05T08:36:28.953Z,99962.81
2024-03-05T08:38:59.913Z,99963.25
2024-03-05T08:41:27.691Z,99967.13
2024-03-05T08:43:56.047Z,99967.00
2024-03-05T08:46:29.511Z,99964.19
2024-03-05T08:48:57.803Z,99970.69
2024-03-05T08:51:27.353Z,99975.97
2024-03-05T08:53:56.973Z,99972.69
2024-03-05T08:56:24.542Z,99975.03
2024-03-05T08:58:54.852Z,99969.59
2024-03-05T09:01:22.939Z,99970.69
2024-03-05T09:03:51.070Z,99971.91
2024-03-05T09:06:22.755Z,99961.19
2024-03-05T09:08:52.841Z,99959.50
2024-03-05T09:11:22.700Z,99965.81
2024-03-05T09:13:50.616Z,99971.38
2024-03-05T09:16:19.250Z,99970.75
2024-03-05T09:18:48.362Z,99966.88
2024-03-05T09:21:16.277Z,99969.38
2024-03-05T09:23:45.313Z,99968.63
2024-03-05T09:26:14.590Z,99963.09
2024-03-05T09:28:42.967Z,99969.41
2024-03-05T09:31:10.659Z,99976.66
2024-03-05T09:33:38.384Z,99967.28
2024-03-05T09:36:07.040Z,99964.09
2024-03-05T09:38:35.401Z,99970.38
2024-03-05T09:41:06.725Z,99975.41
2024-03-05T09:43:41.588Z,99971.53
2024-03-05T09:46:10.121Z,99981.28
2024-03-05T09:48:38.674Z,99976.75
2024-03-05T09:51:09.496Z,99975.31
2024-03-05T09:53:38.608Z,99982.41
2024-03-05T09:56:07.614Z,99979.03
2024-03-05T09:58:39.131Z,99978.00
2024-03-05T10:01:08.088Z,99988.03
2024-03-05T10:03:38.134Z,99979.19
2024-03-05T10:06:07.892Z,99988.63
2024-03-05T10:08:36.751Z,99987.44
2024-03-05T10:11:05.726Z,99994.00
2024-03-05T10:13:37.205Z,99993.97
2024-03-05T10:16:15.298Z,99991.97
2024-03-05T10:18:43.304Z,99998.50
2024-03-05T10:21:17.645Z,99996.50
2024-03-05T10:23:46.642Z,99990.97
2024-03-05T10:26:24.445Z,99997.03
2024-03-05T10:28:56.498Z,99999.69
2024-03-05T10:31:25.587Z,100010.41
2024-03-05T10:33:55.322Z,100002.31
2024-03-05T10:36:30.202Z,99998.97
2024-03-05T10:39:01.966Z,100006.19
2024-03-05T10:41:39.289Z,100007.69
2024-03-05T10:44:19.400Z,100010.69
2024-03-05T10:46:48.490Z,100009.50
2024-03-05T10:49:17.512Z,100011.00
2024-03-05T10:51:47.024Z,100002.06
2024-03-05T10:54:15.820Z,100008.75
2024-03-05T10:56:48.889Z,100012.47
2024-03-05T10:59:19.043Z,100008.97
2024-03-05T11:01:50.075Z,100014.69
2024-03-05T11:04:25.838Z,100010.63
2024-03-05T11:06:56.837Z,100002.75
2024-03-05T11:09:25.367Z,100011.34
2024-03-05T11:11:58.516Z,100021.41
2024-03-05T11:14:28.944Z,100024.09
2024-03-05T11:17:04.528Z,100026.84
2024-03-05T11:19:32.981Z,100029.53
2024-03-05T11:22:00.668Z,100025.25
2024-03-05T11:24:28.447Z,100030.56
2024-03-05T11:27:02.997Z,100031.06
2024-03-05T11:29:38.611Z,100028.75
2024-03-05T11:32:11.305Z,100031.38
2024-03-05T11:34:46.616Z,100038.50
2024-03-05T11:37:17.000Z,100034.31
2024-03-05T11:39:47.718Z,100038.44
2024-03-05T11:42:18.797Z,100039.25
2024-03-05T11:44:57.881Z,100035.56
2024-03-05T11:47:26.343Z,100033.56
2024-03-05T11:49:55.438Z,100040.44
2024-03-05T11:52:25.423Z,100036.06
2024-03-05T11:55:01.252Z,100040.34
2024-03-05T11:57:29.244Z,100042.50
2024-03-05T11:59:59.158Z,100039.66
2024-03-05T12:02:26.865Z,100040.50
2024-03-05T12:05:03.949Z,100044.38
2024-03-05T12:07:31.501Z,100053.63
2024-03-05T12:09:59.565Z,100049.88
2024-03-05T12:12:27.801Z,100052.44
2024-03-05T12:14:56.838Z,100057.72
2024-03-05T12:17:37.596Z,100058.97
2024-03-05T12:20:10.504Z,100058.00
2024-03-05T12:22:39.227Z,100055.47
2024-03-05T12:25:15.723Z,100057.81
2024-03-05T12:27:51.081Z,100061.91
2024-03-05T12:30:35.084Z,100068.97
2024-03-05T12:33:07.643Z,100067.81
2024-03-05T12:35:37.576Z,100066.66
2024-03-05T12:38:25.156Z,100065.16
2024-03-05T12:41:04.428Z,100067.81
2024-03-05T12:43:32.516Z,100070.75
2024-03-05T12:46:01.110Z,100071.19
2024-03-05T12:48:30.001Z,100063.22
2024-03-05T12:51:01.035Z,100069.84
2024-03-05T12:53:28.671Z,100064.66
2024-03-05T12:56:03.261Z,100069.94
2024-03-05T12:58:42.527Z,100074.97
2024-03-05T13:01:10.930Z,100071.09
2024-03-05T13:03:39.986Z,100065.41
2024-03-05T13:06:10.996Z,100066.47
2024-03-05T13:08:39.690Z,100073.22
2024-03-05T13:11:08.086Z,100074.69
2024-03-05T13:13:35.652Z,100068.44
2024-03-05T13:16:04.347Z,100071.72
2024-03-05T13:18:31.877Z,100068.31
2024-03-05T13:21:01.320Z,100074.50
2024-03-05T13:23:30.993Z,100078.34
2024-03-05T13:25:59.812Z,100085.59
2024-03-05T13:28:30.320Z,100081.03
2024-03-05T13:30:58.685Z,100086.94
2024-03-05T13:33:27.030Z,100081.31
2024-03-05T13:35:54.756Z,100090.19
2024-03-05T13:38:24.476Z,100093.09
2024-03-05T13:40:52.672Z,100095.94
2024-03-05T13:43:20.872Z,100099.22
2024-03-05T13:45:49.117Z,100093.13
2024-03-05T13:48:17.277Z,100097.97
2024-03-05T13:50:44.632Z,100100.44
2024-03-05T13:53:15.337Z,100104.88
2024-03-05T13:55:47.746Z,100094.44
2024-03-05T13:58:15.791Z,100105.91
2024-03-05T14:00:43.637Z,100103.06
2024-03-05T14:03:13.537Z,100103.72
2024-03-05T14:05:41.645Z,100094.25
2024-03-05T14:08:10.484Z,100098.22
2024-03-05T14:10:38.652Z,100101.00
2024-03-05T14:13:09.081Z,100094.38
2024-03-05T14:15:36.880Z,100098.44
2024-03-05T14:18:08.099Z,100100.06
2024-03-05T14:20:36.396Z,100095.50
2024-03-05T14:23:12.574Z,100105.50
2024-03-05T14:25:50.950Z,100106.41
2024-03-05T14:28:24.507Z,100110.00
2024-03-05T14:31:00.604Z,100114.84
2024-03-05T14:33:39.517Z,100107.75
2024-03-05T14:36:28.738Z,100110.25
2024-03-05T14:39:01.710Z,100110.31
2024-03-05T14:41:44.323Z,100111.78
2024-03-05T14:44:40.390Z,100108.09
2024-03-05T14:47:13.573Z,100108.72
2024-03-05T14:49:45.961Z,100115.88
2024-03-05T14:52:19.448Z,100122.06
2024-03-05T14:54:51.845Z,100133.38
2024-03-05T14:57:22.651Z,100128.22
2024-03-05T15:00:10.839Z,100125.03
2024-03-05T15:02:42.655Z,100126.75
2024-03-05T15:05:23.053Z,100125.41
2024-03-05T15:08:11.062Z,100134.03
2024-03-05T15:10:44.672Z,100137.38
2024-03-05T15:13:14.437Z,100138.38
2024-03-05T15:15:57.824Z,100146.75
2024-03-05T15:18:40.593Z,100149.94
2024-03-05T15:21:38.595Z,100148.28
2024-03-05T15:24:16.585Z,100152.97
2024-03-05T15:27:04.345Z,100164.69
2024-03-05T15:29:47.467Z,100167.03
2024-03-05T15:32:23.631Z,100166.00
2024-03-05T15:34:56.330Z,100173.97
2024-03-05T15:37:25.288Z,100166.34
2024-03-05T15:39:52.902Z,100168.84
2024-03-05T15:42:21.073Z,100181.09
2024-03-05T15:44:48.486Z,100183.84
2024-03-05T15:47:16.516Z,100183.00
2024-03-05T15:49:59.594Z,100189.09
2024-03-05T15:52:31.556Z,100194.44
2024-03-05T15:54:59.326Z,100197.53
2024-03-05T15:57:33.126Z,100192.63
2024-03-05T16:00:01.643Z,100191.66
2024-03-05T16:02:29.820Z,100204.13
2024-03-05T16:05:17.826Z,100201.13
2024-03-05T16:07:57.026Z,100210.31
2024-03-05T16:10:35.587Z,100216.34
2024-03-05T16:13:11.515Z,100214.34
2024-03-05T16:15:38.912Z,100222.69
2024-03-05T16:18:08.387Z,100221.09
2024-03-05T16:20:41.005Z,100224.69
2024-03-05T16:23:09.480Z,100223.25
2024-03-05T16:25:41.415Z,100222.56
2024-03-05T16:28:11.011Z,100226.00
2024-03-05T16:30:39.462Z,100229.97
2024-03-05T16:33:07.974Z,100234.75
2024-03-05T16:35:40.981Z,100232.66
2024-03-05T16:38:13.136Z,100238.53
2024-03-05T16:40:40.992Z,100241.69
2024-03-05T16:43:08.673Z,100251.44
2024-03-05T16:45:37.059Z,100250.38
2024-03-05T16:48:11.724Z,100248.03
2024-03-05T16:50:44.987Z,100254.06
2024-03-05T16:53:12.815Z,100260.25
2024-03-05T16:55:40.201Z,100263.25
2024-03-05T16:58:20.451Z,100255.44
2024-03-05T17:00:55.153Z,100260.69
2024-03-05T17:03:27.024Z,100268.72
2024-03-05T17:05:59.981Z,100262.16
2024-03-05T17:08:31.989Z,100261.00
2024-03-05T17:10:59.530Z,100273.16
2024-03-05T17:13:33.223Z,100275.00
2024-03-05T17:16:01.588Z,100279.63
2024-03-05T17:18:29.951Z,100274.19
2024-03-05T17:20:59.546Z,100283.84
2024-03-05T17:23:32.413Z,100292.63
2024-03-05T17:26:13.793Z,100290.34
2024-03-05T17:28:47.493Z,100284.97
2024-03-05T17:31:18.692Z,100288.19
2024-03-05T17:34:04.651Z,100288.47
2024-03-05T17:36:51.440Z,100293.34
2024-03-05T17:39:21.378Z,100294.03
2024-03-05T17:41:53.372Z,100297.56
2024-03-05T17:44:23.015Z,100294.66
2024-03-05T17:46:56.149Z,100295.94
2024-03-05T17:49:35.136Z,100308.06
2024-03-05T17:52:05.718Z,100305.22
2024-03-05T17:54:33.796Z,100305.09
2024-03-05T17:57:01.172Z,100298.75
2024-03-05T17:59:33.973Z,100309.75
2024-03-05T18:02:01.291Z,100310.59
2024-03-05T18:04:42.877Z,100312.44
2024-03-05T18:07:14.722Z,100312.75
2024-03-05T18:09:47.736Z,100313.19
2024-03-05T18:12:23.903Z,100314.38
2024-03-05T18:15:11.054Z,100323.50
2024-03-05T18:17:45.381Z,100319.28
2024-03-05T18:20:22.374Z,100319.03
2024-03-05T18:22:51.393Z,100320.44
2024-03-05T18:25:24.871Z,100327.22
2024-03-05T18:28:10.208Z,100320.59
2024-03-05T18:30:40.480Z,100332.41
2024-03-05T18:33:21.364Z,100330.59
2024-03-05T18:39:04.653Z,100339.59
2024-03-05T18:41:47.939Z,100334.13
2024-03-05T18:44:32.011Z,100337.22
2024-03-05T18:50:10.130Z,100334.25
2024-03-05T18:52:51.027Z,100341.19
2024-03-05T18:55:33.119Z,100339.91
2024-03-05T18:58:10.496Z,100339.78
2024-03-05T19:00:57.105Z,100337.81
2024-03-05T19:03:29.667Z,100341.31
2024-03-05T19:06:03.567Z,100341.72
2024-03-05T19:08:53.807Z,100351.00
2024-03-05T19:11:28.978Z,100344.25
2024-03-05T19:14:08.226Z,100351.00
2024-03-05T19:16:37.692Z,100346.91
2024-03-05T19:19:36.687Z,100353.94
2024-03-05T19:22:04.515Z,100354.78
2024-03-05T19:24:41.231Z,100353.25
2024-03-05T19:27:16.188Z,100358.59
2024-03-05T19:29:44.726Z,100361.25
2024-03-05T19:32:22.413Z,100365.03
2024-03-05T19:34:50.632Z,100367.00
2024-03-05T19:37:36.126Z,100359.72
2024-03-05T19:40:10.990Z,100363.78
2024-03-05T19:42:46.911Z,100358.03
2024-03-05T19:45:21.185Z,100368.56
2024-03-05T19:47:54.863Z,100369.56
2024-03-05T19:50:29.474Z,100374.06
2024-03-05T19:53:02.518Z,100373.38
2024-03-05T19:55:43.531Z,100372.53
2024-03-05T19:58:22.701Z,100375.91
2024-03-05T20:01:05.684Z,100376.88
2024-03-05T20:03:33.720Z,100376.00
2024-03-05T20:06:15.187Z,100374.31
2024-03-05T20:08:45.216Z,100380.94
2024-03-05T20:11:24.143Z,100377.84
2024-03-05T20:13:58.647Z,100379.28
2024-03-05T20:16:27.582Z,100381.50
2024-03-05T20:18:55.203Z,100382.94
2024-03-05T20:21:23.029Z,100384.16
2024-03-05T20:23:50.549Z,100385.31
2024-03-05T20:26:23.185Z,100382.78
2024-03-05T20:28:51.325Z,100381.63
2024-03-05T20:31:20.677Z,100378.56
2024-03-05T20:33:48.622Z,100374.75
2024-03-05T20:36:25.391Z,100379.81
2024-03-05T20:38:55.966Z,100381.19
2024-03-05T20:41:24.642Z,100383.31
2024-03-05T20:43:58.082Z,100387.50
2024-03-05T20:46:31.440Z,100388.47
2024-03-05T20:48:59.415Z,100387.75
2024-03-05T20:51:27.413Z,100393.06
2024-03-05T20:54:00.495Z,100397.72
2024-03-05T20:56:33.126Z,100399.56
2024-03-05T20:59:03.247Z,100404.06
2024-03-05T21:01:41.558Z,100400.72
2024-03-05T21:04:18.453Z,100399.88
2024-03-05T21:06:46.466Z,100409.81
2024-03-05T21:09:14.485Z,100401.97
2024-03-05T21:11:42.588Z,100414.34
2024-03-05T21:14:10.181Z,100406.16
2024-03-05T21:16:45.558Z,100402.66
2024-03-05T21:19:13.350Z,100404.63
2024-03-05T21:21:49.393Z,100406.88
2024-03-05T21:24:17.167Z,100402.66
2024-03-05T21:29:20.928Z,100412.13
2024-03-05T21:31:58.458Z,100414.94
2024-03-05T21:34:26.158Z,100404.00
2024-03-05T21:36:54.103Z,100404.25
2024-03-05T21:39:26.485Z,100414.66
2024-03-05T21:41:59.151Z,100408.19
2024-03-05T21:44:34.792Z,100412.97
2024-03-05T21:47:10.804Z,100414.06
2024-03-05T21:49:39.512Z,100407.34
2024-03-05T21:52:15.283Z,100415.34
2024-03-05T21:54:45.878Z,100418.59
2024-03-05T21:57:18.002Z,100421.97
2024-03-05T21:59:45.460Z,100428.13
2024-03-05T22:02:30.461Z,100423.63
2024-03-05T22:05:02.542Z,100431.53
2024-03-05T22:07:35.496Z,100432.63
2024-03-05T22:10:03.807Z,100424.63
2024-03-05T22:12:31.520Z,100434.31
2024-03-05T22:15:03.461Z,100437.59
2024-03-05T22:17:33.019Z,100440.25
2024-03-05T22:20:01.099Z,100433.34
2024-03-05T22:22:29.192Z,100442.81
2024-03-05T22:24:57.727Z,100437.31
2024-03-05T22:27:30.427Z,100442.94
2024-03-05T22:29:57.921Z,100448.69
2024-03-05T22:32:26.196Z,100450.56
2024-03-05T22:34:55.933Z,100453.06
2024-03-05T22:37:24.248Z,100446.31
2024-03-05T22:39:56.696Z,100457.56
2024-03-05T22:42:24.625Z,100463.31
2024-03-05T22:44:52.110Z,100465.59
2024-03-05T22:47:19.979Z,100462.91
2024-03-05T22:49:49.240Z,100471.09
2024-03-05T22:52:22.961Z,100467.28
2024-03-05T22:54:50.404Z,100461.94
2024-03-05T22:57:24.015Z,100461.81
2024-03-05T22:59:51.420Z,100464.63
2024-03-05T23:02:19.490Z,100463.66
2024-03-05T23:04:47.043Z,100466.28
2024-03-05T23:07:24.065Z,100464.34
2024-03-05T23:09:51.444Z,100467.69
2024-03-05T23:12:19.302Z,100473.44
2024-03-05T23:14:46.769Z,100469.94
2024-03-05T23:17:19.238Z,100472.06
2024-03-05T23:19:46.827Z,100477.38
2024-03-05T23:22:14.753Z,100474.00
2024-03-05T23:24:47.000Z,100477.66
2024-03-05T23:27:15.183Z,100477.50
2024-03-05T23:29:42.650Z,100474.41
2024-03-05T23:32:17.810Z,100478.19
2024-03-05T23:34:45.263Z,100478.22
2024-03-05T23:37:18.334Z,100471.69
2024-03-05T23:39:47.173Z,100478.06
2024-03-05T23:42:15.225Z,100483.13
2024-03-05T23:44:42.680Z,100476.22
2024-03-05T23:47:15.300Z,100482.41
2024-03-05T23:49:50.513Z,100476.94
2024-03-05T23:52:18.351Z,100479.22
2024-03-05T23:54:47.570Z,100486.81
2024-03-05T23:57:22.953Z,100483.41
2024-03-05T23:59:53.252Z,100485.50
